createdAt,value
2022-09-12T00:01:46.719Z,17.21
2022-09-12T00:06:48.311Z,17.21
2022-09-12T00:11:50.462Z,17.16
2022-09-12T00:16:51.982Z,17.03
2022-09-12T00:21:53.656Z,16.97
2022-09-12T00:26:55.156Z,16.94
2022-09-12T00:31:56.686Z,16.91
2022-09-12T00:36:58.176Z,16.88
2022-09-12T00:41:59.661Z,16.86
2022-09-12T00:47:06.056Z,16.81
2022-09-12T00:52:13.509Z,16.82
2022-09-12T00:57:16.776Z,16.74
2022-09-12T01:02:18.611Z,16.72
2022-09-12T01:07:21.747Z,16.68
2022-09-12T01:12:23.220Z,16.66
2022-09-12T01:17:31.909Z,16.64
2022-09-12T01:23:14.910Z,16.60
2022-09-12T01:28:54.637Z,16.55
2022-09-12T01:34:02.925Z,16.54
2022-09-12T01:39:10.476Z,16.58
2022-09-12T01:44:18.339Z,16.52
2022-09-12T01:49:29.408Z,16.55
2022-09-12T01:54:39.890Z,16.58
2022-09-12T01:59:47.386Z,16.57
2022-09-12T02:04:56.132Z,16.55
2022-09-12T02:10:02.362Z,16.52
2022-09-12T02:15:09.200Z,16.51
2022-09-12T02:20:46.520Z,16.47
2022-09-12T02:25:46.821Z,16.48
2022-09-12T02:31:20.509Z,16.48
2022-09-12T02:36:34.943Z,16.47
2022-09-12T02:41:36.555Z,16.44
2022-09-12T02:46:43.943Z,16.43
2022-09-12T02:51:46.814Z,16.45
2022-09-12T02:56:48.435Z,16.47
2022-09-12T03:02:04.586Z,16.46
2022-09-12T03:07:06.205Z,16.47
2022-09-12T03:12:29.795Z,16.45
2022-09-12T03:18:06.677Z,16.40
2022-09-12T03:23:45.094Z,16.37
2022-09-12T03:28:47.805Z,16.38
2022-09-12T03:33:49.275Z,16.41
2022-09-12T03:38:51.222Z,16.49
2022-09-12T03:43:52.774Z,16.52
2022-09-12T03:48:54.214Z,16.55
2022-09-12T03:53:55.761Z,16.55
2022-09-12T03:58:57.504Z,16.55
2022-09-12T04:03:58.992Z,16.52
2022-09-12T04:09:00.745Z,16.50
2022-09-12T04:14:02.204Z,16.53
2022-09-12T04:19:03.953Z,16.53
2022-09-12T04:24:05.671Z,16.53
2022-09-12T04:29:07.165Z,16.53
2022-09-12T04:34:08.842Z,16.52
2022-09-12T04:39:10.568Z,16.54
2022-09-12T04:44:14.344Z,16.53
2022-09-12T04:49:17.367Z,16.51
2022-09-12T04:54:20.031Z,16.53
2022-09-12T04:59:22.289Z,16.52
2022-09-12T05:04:23.740Z,16.55
2022-09-12T05:09:25.249Z,16.61
2022-09-12T05:14:26.734Z,16.61
2022-09-12T05:19:30.048Z,16.63
2022-09-12T05:24:32.058Z,16.66
2022-09-12T05:29:34.053Z,16.66
2022-09-12T05:34:35.505Z,16.69
2022-09-12T05:39:37.083Z,16.68
2022-09-12T05:44:38.653Z,16.69
2022-09-12T05:49:40.140Z,16.74
2022-09-12T05:54:41.603Z,16.75
2022-09-12T05:59:43.419Z,16.75
2022-09-12T06:04:45.790Z,16.75
2022-09-12T06:09:47.245Z,16.72
2022-09-12T06:14:49.343Z,16.67
2022-09-12T06:19:51.060Z,16.66
2022-09-12T06:24:56.037Z,16.67
2022-09-12T06:29:59.583Z,16.65
2022-09-12T06:35:01.457Z,16.68
2022-09-12T06:40:03.330Z,16.67
2022-09-12T06:45:05.056Z,16.69
2022-09-12T06:50:07.164Z,16.78
2022-09-12T06:55:08.752Z,16.83
2022-09-12T07:00:10.709Z,17.06
2022-09-12T07:05:12.980Z,17.34
2022-09-12T07:10:16.985Z,17.62
2022-09-12T07:15:20.500Z,17.89
2022-09-12T07:20:23.095Z,18.05
2022-09-12T07:25:24.588Z,18.22
2022-09-12T07:30:26.208Z,18.34
2022-09-12T07:35:27.730Z,18.44
2022-09-12T07:40:29.456Z,18.42
2022-09-12T07:45:31.120Z,18.36
2022-09-12T07:50:33.507Z,18.31
2022-09-12T07:55:34.954Z,18.33
2022-09-12T08:00:37.818Z,18.39
2022-09-12T08:05:39.373Z,18.47
2022-09-12T08:10:40.885Z,18.70
2022-09-12T08:15:42.504Z,18.82
2022-09-12T08:20:43.962Z,18.95
2022-09-12T08:25:45.612Z,19.03
2022-09-12T08:30:47.168Z,19.08
2022-09-12T08:35:48.754Z,19.06
2022-09-12T08:41:02.247Z,19.12
2022-09-12T08:46:30.130Z,19.21
2022-09-12T08:51:35.586Z,19.40
2022-09-12T08:56:39.142Z,19.54
2022-09-12T09:01:44.631Z,19.73
2022-09-12T09:06:59.247Z,19.82
2022-09-12T09:12:06.741Z,19.93
2022-09-12T09:17:13.154Z,20.15
2022-09-12T09:22:25.132Z,20.26
2022-09-12T09:27:42.565Z,20.43
2022-09-12T09:32:47.772Z,20.59
2022-09-12T09:38:08.665Z,20.69
2022-09-12T09:43:22.875Z,20.76
2022-09-12T09:48:35.235Z,20.90
2022-09-12T09:53:50.392Z,21.12
2022-09-12T09:58:51.955Z,21.35
2022-09-12T10:03:55.674Z,21.47
2022-09-12T10:09:15.731Z,21.70
2022-09-12T10:14:43.184Z,21.61
2022-09-12T10:19:49.849Z,21.63
2022-09-12T10:25:01.755Z,21.68
2022-09-12T10:30:07.439Z,21.81
2022-09-12T10:35:17.651Z,21.92
2022-09-12T10:40:27.738Z,21.93
2022-09-12T10:45:37.580Z,21.91
2022-09-12T10:50:41.535Z,22.01
2022-09-12T10:56:01.594Z,22.09
2022-09-12T11:01:36.351Z,22.21
2022-09-12T11:06:47.098Z,22.25
2022-09-12T11:12:14.626Z,22.32
2022-09-12T11:18:04.645Z,22.37
2022-09-12T11:23:17.203Z,22.44
2022-09-12T11:28:30.734Z,22.35
2022-09-12T11:33:43.186Z,22.51
2022-09-12T11:38:52.235Z,22.51
2022-09-12T11:44:24.545Z,22.44
2022-09-12T11:49:38.240Z,22.51
2022-09-12T11:54:44.867Z,22.63
2022-09-12T11:59:50.067Z,22.81
2022-09-12T12:05:24.258Z,22.84
2022-09-12T12:10:35.640Z,22.81
2022-09-12T12:15:39.227Z,22.75
2022-09-12T12:20:40.901Z,22.83
2022-09-12T12:25:52.940Z,22.74
2022-09-12T12:30:54.869Z,22.70
2022-09-12T12:36:02.252Z,22.61
2022-09-12T12:41:18.498Z,22.52
2022-09-12T12:46:26.493Z,22.47
2022-09-12T12:51:35.674Z,22.45
2022-09-12T12:56:42.504Z,22.45
2022-09-12T13:01:54.706Z,22.40
2022-09-12T13:07:08.728Z,22.40
2022-09-12T13:12:21.777Z,22.32
2022-09-12T13:17:26.138Z,22.30
2022-09-12T13:22:42.201Z,22.36
2022-09-12T13:28:26.415Z,22.37
2022-09-12T13:33:28.433Z,22.33
2022-09-12T13:38:54.370Z,22.30
2022-09-12T13:43:55.932Z,22.26
2022-09-12T13:49:00.295Z,22.29
2022-09-12T13:54:05.305Z,22.33
2022-09-12T13:59:12.461Z,22.38
2022-09-12T14:04:38.601Z,22.44
2022-09-12T14:09:43.848Z,22.49
2022-09-12T14:14:48.869Z,22.47
2022-09-12T14:19:52.683Z,22.42
2022-09-12T14:24:54.613Z,22.39
2022-09-12T14:30:20.067Z,22.39
2022-09-12T14:35:21.846Z,22.37
2022-09-12T14:40:24.173Z,22.36
2022-09-12T14:45:30.208Z,22.37
2022-09-12T14:50:35.430Z,22.31
2022-09-12T14:55:45.297Z,22.24
2022-09-12T15:01:08.289Z,22.22
2022-09-12T15:06:39.903Z,22.21
2022-09-12T15:11:41.354Z,22.19
2022-09-12T15:16:42.876Z,22.17
2022-09-12T15:21:44.346Z,22.18
2022-09-12T15:26:45.799Z,22.18
2022-09-12T15:31:50.847Z,22.13
2022-09-12T15:36:52.739Z,22.11
2022-09-12T15:41:54.224Z,22.16
2022-09-12T15:46:55.697Z,22.12
2022-09-12T15:51:57.367Z,22.12
2022-09-12T15:56:59.399Z,22.10
2022-09-12T16:02:01.162Z,22.11
2022-09-12T16:07:02.639Z,22.06
2022-09-12T16:12:04.191Z,22.01
2022-09-12T16:17:05.630Z,21.98
2022-09-12T16:22:07.126Z,22.01
2022-09-12T16:27:08.601Z,21.89
2022-09-12T16:32:10.163Z,21.83
2022-09-12T16:37:11.618Z,21.79
2022-09-12T16:42:13.095Z,21.73
2022-09-12T16:47:15.219Z,21.65
2022-09-12T16:52:17.051Z,21.56
2022-09-12T16:57:18.527Z,21.51
2022-09-12T17:02:20.432Z,21.45
2022-09-12T17:07:22.201Z,21.39
2022-09-12T17:12:24.035Z,21.29
2022-09-12T17:17:25.617Z,21.16
2022-09-12T17:22:27.751Z,21.09
2022-09-12T17:27:29.235Z,21.00
2022-09-12T17:32:30.723Z,20.94
2022-09-12T17:37:32.258Z,20.90
2022-09-12T17:42:34.437Z,20.85
2022-09-12T17:47:35.967Z,20.79
2022-09-12T17:52:37.499Z,20.72
2022-09-12T17:57:40.161Z,20.70
2022-09-12T18:02:42.846Z,20.65
2022-09-12T18:07:44.375Z,20.62
2022-09-12T18:12:47.042Z,20.58
2022-09-12T18:17:48.511Z,20.53
2022-09-12T18:22:50.048Z,20.46
2022-09-12T18:27:51.922Z,20.39
2022-09-12T18:32:53.377Z,20.37
2022-09-12T18:37:55.751Z,20.32
2022-09-12T18:42:57.204Z,20.23
2022-09-12T18:47:58.749Z,20.12
2022-09-12T18:53:00.259Z,19.92
2022-09-12T18:58:01.725Z,19.78
2022-09-12T19:03:03.212Z,19.67
2022-09-12T19:08:04.854Z,19.64
2022-09-12T19:13:06.498Z,19.64
2022-09-12T19:18:08.724Z,19.63
2022-09-12T19:23:10.242Z,19.58
2022-09-12T19:28:12.288Z,19.48
2022-09-12T19:33:13.844Z,19.39
2022-09-12T19:38:15.708Z,19.34
2022-09-12T19:43:17.227Z,19.33
2022-09-12T19:48:19.692Z,19.36
2022-09-12T19:53:21.212Z,19.35
2022-09-12T19:58:22.683Z,19.43
2022-09-12T20:03:24.194Z,19.49
2022-09-12T20:08:25.661Z,19.49
2022-09-12T20:13:27.688Z,19.47
2022-09-12T20:18:29.216Z,19.40
2022-09-12T20:23:30.862Z,19.29
2022-09-12T20:28:32.513Z,19.22
2022-09-12T20:33:34.490Z,19.14
2022-09-12T20:38:36.459Z,19.11
2022-09-12T20:43:40.939Z,19.05
2022-09-12T20:48:43.144Z,18.99
2022-09-12T20:53:44.636Z,18.97
2022-09-12T20:58:46.229Z,18.97
2022-09-12T21:03:47.953Z,18.97
2022-09-12T21:08:50.184Z,18.98
2022-09-12T21:13:52.745Z,18.96
2022-09-12T21:18:56.988Z,18.97
2022-09-12T21:23:59.761Z,18.99
2022-09-12T21:29:01.418Z,19.02
2022-09-12T21:34:02.958Z,19.02
2022-09-12T21:39:05.126Z,19.06
2022-09-12T21:44:07.383Z,19.08
2022-09-12T21:49:08.865Z,19.07
2022-09-12T21:54:10.366Z,19.06
2022-09-12T21:59:11.848Z,19.02
2022-09-12T22:04:13.398Z,18.98
2022-09-12T22:09:16.887Z,19.03
2022-09-12T22:14:18.570Z,19.03
2022-09-12T22:19:20.183Z,18.98
2022-09-12T22:24:27.566Z,18.91
2022-09-12T22:29:29.085Z,18.76
2022-09-12T22:34:30.819Z,18.63
2022-09-12T22:39:32.462Z,18.48
2022-09-12T22:44:34.118Z,18.34
2022-09-12T22:49:35.618Z,18.23
2022-09-12T22:54:37.670Z,18.23
2022-09-12T22:59:39.446Z,18.23
2022-09-12T23:04:40.891Z,18.17
2022-09-12T23:09:42.427Z,18.16
2022-09-12T23:14:43.965Z,18.04
2022-09-12T23:19:45.643Z,18.00
2022-09-12T23:24:47.221Z,17.91
2022-09-12T23:29:52.289Z,17.86
2022-09-12T23:34:53.840Z,17.82
2022-09-12T23:39:55.396Z,17.84
2022-09-12T23:44:57.207Z,17.86
2022-09-12T23:49:58.713Z,17.87
2022-09-12T23:55:00.158Z,17.89
